Beauville

FR-0583 · Lot y Garona, Nouvelle-Aquitaine, Francia

METAR pasados FR-0583 · Beauville

A continuación puedes ver los METAR de los últimos días. Selecciona un año para ver los METAR más antiguos, desde el año 2007 en adelante.

15 de julio de 2024

Hora Código Tiempo Temp. Visibilidad Cielo nuboso Viento METAR/SPECI
19:00
V
26 °C 10 km+ 4.800 ft 310° 310° 4 kt METAR LFBA 151700Z AUTO 31004KT 9999 FEW040 BKN048 BKN054 26/18 Q1013 BECMG SCT045TCU
18:30
V
26 °C 10 km+ - 310° 310° 6 kt METAR LFBA 151630Z AUTO 31006KT 9999 ///CB 26/18 Q1013 NOSIG
18:00
V
25 °C 10 km+ 10.000 ft 290° 290° 8 kt METAR LFBA 151600Z AUTO 29008KT 9999 FEW028/// SCT037/// BKN100/// ///TCU 25/18 Q1013 NOSIG
17:30
V
26 °C 10 km+ 3.500 ft 350° 350° 5 kt METAR LFBA 151530Z AUTO 35005KT 300V030 9999 BKN035/// //////CB 26/19 Q1013 NOSIG
17:00
V
26 °C 10 km+ 3.500 ft 280° 280° 4 kt METAR LFBA 151500Z AUTO 28004KT 230V330 9999 FEW026/// OVC035/// ///TCU 26/20 Q1013 TEMPO VRB15G25KT SCT050CB
16:30
V
25 °C 10 km+ 3.200 ft 210° 210° 4 kt METAR LFBA 151430Z AUTO 21004KT 160V260 9999 SCT026 BKN032 BKN039 25/19 Q1013 TEMPO 30015G25KT BECMG SCT045TCU
16:00
M
24 °C 10 km+ 2.800 ft 200° 200° 6 kt METAR LFBA 151400Z AUTO 20006KT 160V240 9999 SCT020/// BKN028/// BKN052/// ///TCU 24/20 Q1013 TEMPO 30015G25KT SCT050CB
15:30
V
24 °C 10 km+ 11.000 ft 170° 170° 4 kt METAR LFBA 151330Z AUTO 17004KT 140V220 9999 FEW031 BKN110 24/20 Q1013 TEMPO 30015G25KT SCT050CB
15:00
V
23 °C 10 km+ - 190° 190° 4 kt METAR LFBA 151300Z AUTO 19004KT 150V230 CAVOK 23/20 Q1013 TEMPO 30015G25KT SCT050CB
14:30
V
23 °C 10 km+ - 280° 280° 4 kt METAR LFBA 151230Z AUTO 28004KT 250V320 9999 ///TCU 23/19 Q1012 TEMPO 30015G25KT SCT050CB
14:00
V
22 °C 10 km+ 7.000 ft 340° 340° 3 kt METAR LFBA 151200Z AUTO 34003KT 280V080 9999 -RA FEW035/// SCT054/// BKN070/// //////TCU 22/19 Q1012 TEMPO 30015G25KT SCT050CB
13:30
V
22 °C 10 km+ 4.500 ft 300° 300° 8 kt METAR LFBA 151130Z AUTO 30008KT 270V340 9999 -RA SCT035/// BKN045/// BKN060/// //////CB 22/19 Q1012 TEMPO 30015G25KT
13:00
V
23 °C 10 km+ 5.200 ft 290° 290° 11 kt METAR LFBA 151100Z AUTO 29011KT 260V320 9999 -RA FEW037/// SCT046/// BKN052/// //////CB 23/18 Q1012 TEMPO 30015G25KT
12:30
V
27 °C 10 km+ - 290° 290° 14 kt METAR LFBA 151030Z AUTO 29014KT 250V320 9999 FEW042/// //////TCU 27/17 Q1011 TEMPO 30015G25KT
12:00
V
29 °C 10 km+ - 260° 260° 9 kt METAR LFBA 151000Z AUTO 26009KT 230V310 9999 //////CB 29/19 Q1010 TEMPO 30015G25KT
11:30
V
29 °C 10 km+ - Var Var 3 kt METAR LFBA 150930Z AUTO VRB03KT CAVOK 29/20 Q1010 TEMPO 30015G25KT SCT045TCU
11:00
V
28 °C 10 km+ - 140° 140° 6 kt METAR LFBA 150900Z AUTO 14006KT 090V180 CAVOK 28/21 Q1009 TEMPO 30015G25KT SCT045TCU
10:30
V
27 °C 10 km+ - 150° 150° 7 kt METAR LFBA 150830Z AUTO 15007KT 110V190 CAVOK 27/21 Q1009 TEMPO 30015G25KT SCT040TCU
10:00
V
25 °C 10 km+ - 140° 140° 5 kt METAR LFBA 150800Z AUTO 14005KT 080V220 CAVOK 25/20 Q1009 BECMG 29012KT
09:30
V
24 °C 10 km+ - 090° 090° 4 kt METAR LFBA 150730Z AUTO 09004KT 050V120 CAVOK 24/20 Q1009 BECMG 29012KT
09:00
V
23 °C 10 km+ - 100° 100° 6 kt METAR LFBA 150700Z AUTO 10006KT CAVOK 23/20 Q1009 BECMG 29012KT
08:30
V
22 °C 10 km+ - 110° 110° 4 kt METAR LFBA 150630Z AUTO 11004KT 080V140 CAVOK 22/19 Q1009 BECMG 29012KT
08:00
V
20 °C 10 km+ - 120° 120° 8 kt METAR LFBA 150600Z AUTO 12008KT CAVOK 20/19 Q1008 NOSIG
07:30
V
20 °C 10 km+ - 120° 120° 7 kt METAR LFBA 150530Z AUTO 12007KT CAVOK 20/18 Q1008 NOSIG
07:00
V
19 °C 10 km+ - 110° 110° 5 kt METAR LFBA 150500Z AUTO 11005KT CAVOK 19/18 Q1008 NOSIG
06:30
V
18 °C 10 km+ - 100° 100° 6 kt METAR LFBA 150430Z AUTO 10006KT CAVOK 18/18 Q1008 NOSIG
06:00
V
18 °C 10 km+ - 110° 110° 5 kt METAR LFBA 150400Z AUTO 11005KT CAVOK 18/17 Q1008 NOSIG
05:30
V
18 °C 10 km+ - 130° 130° 3 kt METAR LFBA 150330Z AUTO 13003KT CAVOK 18/18 Q1008 NOSIG
05:00
V
18 °C 10 km+ - 130° 130° 3 kt METAR LFBA 150300Z AUTO 13003KT CAVOK 18/18 Q1009
04:30
V
18 °C 10 km+ - 100° 100° 5 kt METAR LFBA 150230Z AUTO 10005KT CAVOK 18/17 Q1009
04:00
V
18 °C 10 km+ - 110° 110° 5 kt METAR LFBA 150200Z AUTO 11005KT CAVOK 18/17 Q1009
03:30
V
19 °C 10 km+ - 140° 140° 4 kt METAR LFBA 150130Z AUTO 14004KT CAVOK 19/17 Q1010
03:00
V
19 °C 10 km+ - 130° 130° 4 kt METAR LFBA 150100Z AUTO 13004KT CAVOK 19/17 Q1010
02:30
V
20 °C 10 km+ - 120° 120° 3 kt METAR LFBA 150030Z AUTO 12003KT CAVOK 20/18 Q1010
02:00
V
20 °C 10 km+ - 080° 080° 3 kt METAR LFBA 150000Z AUTO 08003KT CAVOK 20/18 Q1011
01:30
V
20 °C 10 km+ - Var Var 3 kt METAR LFBA 142330Z AUTO VRB03KT CAVOK 20/18 Q1011
01:00
V
21 °C 10 km+ - 140° 140° 3 kt METAR LFBA 142300Z AUTO 14003KT CAVOK 21/18 Q1011
00:30
V
21 °C 10 km+ - 180° 180° 1 kt METAR LFBA 142230Z AUTO 18001KT CAVOK 21/18 Q1011
00:00
V
22 °C 10 km+ - 290° 290° 4 kt METAR LFBA 142200Z AUTO 29004KT CAVOK 22/18 Q1011

14 de julio de 2024

Hora Código Tiempo Temp. Visibilidad Cielo nuboso Viento METAR/SPECI
23:30
V
22 °C 10 km+ - 320° 320° 2 kt METAR LFBA 142130Z AUTO 32002KT CAVOK 22/18 Q1012
23:00
V
23 °C 10 km+ - 210° 210° 1 kt METAR LFBA 142100Z AUTO 21001KT CAVOK 23/18 Q1012
22:30
V
23 °C 10 km+ - 360° 360° 0 kt METAR LFBA 142030Z AUTO 00000KT CAVOK 23/17 Q1012
22:00
L
24 °C 1,1 km - 290° 290° 3 kt METAR LFBA 142000Z AUTO 29003KT 5000 1100 R29/P2000 HZ NSC 24/17 Q1012 NOSIG
21:30
V
25 °C 10 km+ - Var Var 2 kt METAR LFBA 141930Z AUTO VRB02KT 9999 //////TCU 25/17 Q1012 BECMG NSC
21:00
V
25 °C 10 km+ - 320° 320° 4 kt METAR LFBA 141900Z AUTO 32004KT CAVOK 25/17 Q1012 NOSIG
20:30
V
26 °C 10 km+ - 340° 340° 4 kt METAR LFBA 141830Z AUTO 34004KT CAVOK 26/17 Q1012 NOSIG
20:00
V
27 °C 10 km+ - 350° 350° 5 kt METAR LFBA 141800Z AUTO 35005KT CAVOK 27/17 Q1012 NOSIG
19:30
V
28 °C 10 km+ - 340° 340° 4 kt METAR LFBA 141730Z AUTO 34004KT CAVOK 28/17 Q1012 NOSIG
19:00
V
27 °C 10 km+ - 330° 330° 4 kt METAR LFBA 141700Z AUTO 33004KT 310V010 CAVOK 27/18 Q1012 NOSIG
18:30
V
28 °C 10 km+ - 340° 340° 7 kt METAR LFBA 141630Z AUTO 34007KT CAVOK 28/18 Q1011 NOSIG
18:00
V
29 °C 10 km+ - 340° 340° 5 kt METAR LFBA 141600Z AUTO 34005KT 300V010 CAVOK 29/17 Q1011 NOSIG
17:30
V
28 °C 10 km+ - 360° 360° 6 kt METAR LFBA 141530Z AUTO 36006KT 330V030 CAVOK 28/17 Q1011 NOSIG
17:00
V
29 °C 10 km+ - 330° 330° 6 kt METAR LFBA 141500Z AUTO 33006KT CAVOK 29/18 Q1011 NOSIG
16:30
V
29 °C 10 km+ - 330° 330° 5 kt METAR LFBA 141430Z AUTO 33005KT 300V030 CAVOK 29/17 Q1011 NOSIG
16:00
V
29 °C 10 km+ - 340° 340° 5 kt METAR LFBA 141400Z AUTO 34005KT 300V040 CAVOK 29/16 Q1011 NOSIG
15:30
V
30 °C 10 km+ - 290° 290° 3 kt METAR LFBA 141330Z AUTO 29003KT 200V350 CAVOK 30/17 Q1011 NOSIG
15:00
V
29 °C 10 km+ - 310° 310° 4 kt METAR LFBA 141300Z AUTO 31004KT 240V020 CAVOK 29/15 Q1011 NOSIG
14:30
V
28 °C 10 km+ - Var Var 3 kt METAR LFBA 141230Z AUTO VRB03KT CAVOK 28/16 Q1011 NOSIG
14:00
V
28 °C 10 km+ - 070° 070° 4 kt METAR LFBA 141200Z AUTO 07004KT 340V140 CAVOK 28/17 Q1011 NOSIG
13:30
V
27 °C 10 km+ - Var Var 3 kt METAR LFBA 141130Z AUTO VRB03KT CAVOK 27/16 Q1011 NOSIG
13:00
V
27 °C 10 km+ - Var Var 3 kt METAR LFBA 141100Z AUTO VRB03KT CAVOK 27/17 Q1011 NOSIG
12:30
V
25 °C 10 km+ - 340° 340° 4 kt METAR LFBA 141030Z AUTO 34004KT 310V010 CAVOK 25/16 Q1011 NOSIG
12:00
V
25 °C 10 km+ - Var Var 3 kt METAR LFBA 141000Z AUTO VRB03KT CAVOK 25/15 Q1011 NOSIG
11:30
V
24 °C 10 km+ - 110° 110° 4 kt METAR LFBA 140930Z AUTO 11004KT 050V150 CAVOK 24/14 Q1011 NOSIG
11:00
V
23 °C 10 km+ - 070° 070° 3 kt METAR LFBA 140900Z AUTO 07003KT 010V140 CAVOK 23/15 Q1011 NOSIG
10:30
V
21 °C 10 km+ - Var Var 2 kt METAR LFBA 140830Z AUTO VRB02KT CAVOK 21/15 Q1011 NOSIG
10:00
V
20 °C 10 km+ - 100° 100° 6 kt METAR LFBA 140800Z AUTO 10006KT 060V120 CAVOK 20/14 Q1011 NOSIG
09:30
V
19 °C 10 km+ - 110° 110° 5 kt METAR LFBA 140730Z AUTO 11005KT 080V150 CAVOK 19/14 Q1011 NOSIG
09:00
V
19 °C 10 km+ - Var Var 3 kt METAR LFBA 140700Z AUTO VRB03KT CAVOK 19/14 Q1011 NOSIG
08:30
V
17 °C 10 km+ - Var Var 2 kt METAR LFBA 140630Z AUTO VRB02KT CAVOK 17/13 Q1011 NOSIG
08:00
V
16 °C 10 km+ - 080° 080° 2 kt METAR LFBA 140600Z AUTO 08002KT CAVOK 16/14 Q1011 NOSIG
07:30
V
15 °C 10 km+ - 110° 110° 4 kt METAR LFBA 140530Z AUTO 11004KT CAVOK 15/14 Q1011 NOSIG
07:00
V
14 °C 10 km+ - 110° 110° 3 kt METAR LFBA 140500Z AUTO 11003KT CAVOK 14/14 Q1011 NOSIG
06:30
V
14 °C 10 km+ - 100° 100° 4 kt METAR LFBA 140430Z AUTO 10004KT CAVOK 14/13 Q1011 NOSIG
06:00
V
14 °C 10 km+ - 100° 100° 3 kt METAR LFBA 140400Z AUTO 10003KT CAVOK 14/13 Q1011 NOSIG
05:30
V
14 °C 10 km+ - 110° 110° 2 kt METAR LFBA 140330Z AUTO 11002KT CAVOK 14/13 Q1011 NOSIG
05:00
V
14 °C 10 km+ - 110° 110° 3 kt METAR LFBA 140300Z AUTO 11003KT CAVOK 14/12 Q1011 NOSIG
04:30
V
13 °C 10 km+ - 080° 080° 2 kt METAR LFBA 140230Z AUTO 08002KT CAVOK 13/12 Q1011 NOSIG
04:00
V
13 °C 10 km+ - 120° 120° 3 kt METAR LFBA 140200Z AUTO 12003KT CAVOK 13/12 Q1012
03:30
V
14 °C 10 km+ - 360° 360° 0 kt METAR LFBA 140130Z AUTO 00000KT CAVOK 14/12 Q1012
03:00
V
14 °C 10 km+ - 120° 120° 1 kt METAR LFBA 140100Z AUTO 12001KT CAVOK 14/12 Q1012
02:30
V
15 °C 10 km+ - 210° 210° 1 kt METAR LFBA 140030Z AUTO 21001KT CAVOK 15/13 Q1012
02:00
V
14 °C 10 km+ - 360° 360° 0 kt METAR LFBA 140000Z AUTO 00000KT CAVOK 14/12 Q1013
01:30
V
15 °C 10 km+ - 110° 110° 2 kt METAR LFBA 132330Z AUTO 11002KT CAVOK 15/13 Q1013
01:00
V
15 °C 10 km+ - 100° 100° 2 kt METAR LFBA 132300Z AUTO 10002KT CAVOK 15/12 Q1013
00:30
V
16 °C 10 km+ - 360° 360° 0 kt METAR LFBA 132230Z AUTO 00000KT CAVOK 16/12 Q1013
00:00
V
16 °C 10 km+ - 360° 360° 0 kt METAR LFBA 132200Z AUTO 00000KT CAVOK 16/12 Q1013

13 de julio de 2024

Hora Código Tiempo Temp. Visibilidad Cielo nuboso Viento METAR/SPECI
23:30
V
17 °C 10 km+ - 360° 360° 0 kt METAR LFBA 132130Z AUTO 00000KT CAVOK 17/13 Q1013
23:00
V
17 °C 10 km+ - 190° 190° 2 kt METAR LFBA 132100Z AUTO 19002KT CAVOK 17/12 Q1013
22:30
V
17 °C 10 km+ - 310° 310° 3 kt METAR LFBA 132030Z AUTO 31003KT CAVOK 17/13 Q1013
22:00
L
19 °C 1 km - Var Var 1 kt METAR LFBA 132000Z AUTO VRB01KT 3100 1000 R29/P2000 HZ NSC 19/12 Q1013 BECMG 9999 NSW
21:30
V
22 °C 10 km+ - 200° 200° 2 kt METAR LFBA 131930Z AUTO 20002KT CAVOK 22/12 Q1013 NOSIG
21:00
V
22 °C 10 km+ - 200° 200° 3 kt METAR LFBA 131900Z AUTO 20003KT CAVOK 22/12 Q1013 NOSIG
20:30
V
23 °C 10 km+ - 190° 190° 4 kt METAR LFBA 131830Z AUTO 19004KT 150V220 CAVOK 23/11 Q1013 NOSIG
20:00
V
23 °C 10 km+ - 180° 180° 4 kt METAR LFBA 131800Z AUTO 18004KT 150V210 CAVOK 23/11 Q1013 NOSIG
19:30
V
24 °C 10 km+ - 170° 170° 3 kt METAR LFBA 131730Z AUTO 17003KT 120V210 CAVOK 24/11 Q1013 NOSIG
19:00
V
24 °C 10 km+ - 140° 140° 4 kt METAR LFBA 131700Z AUTO 14004KT 100V190 CAVOK 24/12 Q1013 NOSIG
18:30
V
24 °C 10 km+ - Var Var 2 kt METAR LFBA 131630Z AUTO VRB02KT CAVOK 24/10 Q1013 NOSIG
18:00
V
25 °C 10 km+ - Var Var 2 kt METAR LFBA 131600Z AUTO VRB02KT CAVOK 25/11 Q1013 NOSIG
17:30
V
24 °C 10 km+ - Var Var 4 kt METAR LFBA 131530Z AUTO VRB04KT CAVOK 24/11 Q1013 NOSIG
17:00
V
24 °C 10 km+ - Var Var 2 kt METAR LFBA 131500Z AUTO VRB02KT CAVOK 24/12 Q1014 NOSIG
16:30
V
24 °C 10 km+ - Var Var 3 kt METAR LFBA 131430Z AUTO VRB03KT CAVOK 24/12 Q1014 NOSIG
16:00
V
23 °C 10 km+ - 080° 080° 4 kt METAR LFBA 131400Z AUTO 08004KT 020V140 CAVOK 23/11 Q1014 NOSIG
15:30
V
23 °C 10 km+ - Var Var 2 kt METAR LFBA 131330Z AUTO VRB02KT CAVOK 23/11 Q1014 NOSIG
15:00
V
23 °C 10 km+ - 350° 350° 5 kt METAR LFBA 131300Z AUTO 35005KT 290V080 CAVOK 23/11 Q1015 NOSIG
14:30
V
22 °C 10 km+ - 320° 320° 4 kt METAR LFBA 131230Z AUTO 32004KT 270V030 CAVOK 22/11 Q1015 NOSIG
14:00
V
22 °C 10 km+ - Var Var 4 kt METAR LFBA 131200Z AUTO VRB04KT 9999 FEW045 22/10 Q1015 NOSIG
13:30
V
22 °C 10 km+ 4.700 ft 310° 310° 5 kt METAR LFBA 131130Z AUTO 31005KT 270V020 9999 BKN047 OVC092 22/11 Q1015 NOSIG
13:00
V
21 °C 10 km+ 22.000 ft Var Var 4 kt METAR LFBA 131100Z AUTO VRB04KT 9999 SCT042 BKN220 21/12 Q1016 NOSIG
12:30
V
21 °C 10 km+ 22.000 ft 270° 270° 4 kt METAR LFBA 131030Z AUTO 27004KT 180V330 9999 FEW043 BKN220 21/10 Q1016 NOSIG
12:00
V
21 °C 10 km+ - Var Var 3 kt METAR LFBA 131000Z AUTO VRB03KT 9999 FEW037 SCT220 21/11 Q1016 NOSIG
11:30
V
20 °C 10 km+ - 340° 340° 4 kt METAR LFBA 130930Z AUTO 34004KT 260V040 9999 SCT035 SCT210 20/12 Q1016 NOSIG
11:00
V
19 °C 10 km+ 3.100 ft 350° 350° 4 kt METAR LFBA 130900Z AUTO 35004KT 260V060 9999 BKN031 19/10 Q1016 NOSIG
10:30
V
20 °C 10 km+ - Var Var 2 kt METAR LFBA 130830Z AUTO VRB02KT 9999 FEW029 20/11 Q1016 NOSIG
10:00
V
19 °C 10 km+ - 040° 040° 5 kt METAR LFBA 130800Z AUTO 04005KT 360V120 CAVOK 19/11 Q1017 NOSIG
09:30
V
18 °C 10 km+ - 080° 080° 3 kt METAR LFBA 130730Z AUTO 08003KT 030V130 CAVOK 18/12 Q1017 NOSIG
09:00
V
17 °C 10 km+ - Var Var 2 kt METAR LFBA 130700Z AUTO VRB02KT CAVOK 17/12 Q1017 NOSIG
08:30
V
15 °C 10 km+ - 360° 360° 0 kt METAR LFBA 130630Z AUTO 00000KT CAVOK 15/12 Q1017 NOSIG
08:00
V
14 °C 10 km+ - Var Var 1 kt METAR LFBA 130600Z AUTO VRB01KT CAVOK 14/12 Q1017 NOSIG
Cambiar esta información